Macon, Arkansas
Current Conditions -  °F | °C
As of 1:58 PM on Wednesday 26 Nov 2014 (Local Time) from KLRF Reporting Station
Clear Clear  
Wind Chill: 55°   Ceiling: Unl
Heat Index: 55°   Visibility: 10mi
Dew Point: 32°   Wind: 15mph
Humidity: 42%   Direction: 290°WNW
Pressure: 30.03"   Gusts: NA
Location:  34.9092°N, 92.1561°W
Report Text: KLRF 261958Z AUTO 29013KT 10SM CLR 13/00 A3003 RMK AO2 SLP173 T01261002 $
Loading
Personal Weather Stations






























Interactive Weather Map New forecast layout! Learn more

10-Day Weather Forecast

Advertisements
Track Severe Weather on mobile